createdAt,value
2023-02-01T00:44:56.082Z,16.89
2023-02-01T00:45:56.043Z,16.91
2023-02-01T00:46:56.117Z,16.92
2023-02-01T00:47:56.004Z,16.94
2023-02-01T00:48:55.988Z,16.86
2023-02-01T00:49:55.970Z,16.91
2023-02-01T00:50:55.969Z,16.84
2023-02-01T00:51:55.937Z,16.89
2023-02-01T00:52:55.907Z,16.95
2023-02-01T00:53:55.885Z,16.91
2023-02-01T00:54:55.861Z,16.87
2023-02-01T00:55:55.871Z,16.89
2023-02-01T00:56:55.836Z,16.88
2023-02-01T00:57:55.810Z,16.89
2023-02-01T00:58:55.807Z,16.93
2023-02-01T00:59:55.775Z,16.87
2023-02-01T01:00:55.790Z,16.83
2023-02-01T01:01:55.800Z,16.91
2023-02-01T01:02:55.718Z,16.86
2023-02-01T01:03:55.710Z,16.89
2023-02-01T01:04:55.696Z,16.89
2023-02-01T01:05:55.667Z,16.92
2023-02-01T01:06:55.675Z,16.87
2023-02-01T01:07:55.640Z,16.91
2023-02-01T01:08:55.640Z,16.89
2023-02-01T01:09:55.621Z,16.92
2023-02-01T01:10:55.587Z,16.86
2023-02-01T01:11:55.578Z,16.86
2023-02-01T01:12:55.566Z,16.94
2023-02-01T01:13:55.547Z,16.91
2023-02-01T01:14:55.541Z,16.91
2023-02-01T01:15:55.562Z,16.87
2023-02-01T01:16:55.518Z,16.89
2023-02-01T01:17:55.502Z,16.89
2023-02-01T01:18:55.480Z,16.93
2023-02-01T01:19:55.467Z,16.92
2023-02-01T01:20:55.442Z,16.84
2023-02-01T01:21:55.433Z,16.90
2023-02-01T01:22:55.419Z,16.91
2023-02-01T01:23:55.401Z,16.86
2023-02-01T01:24:55.373Z,16.92
2023-02-01T01:25:55.366Z,16.92
2023-02-01T01:26:55.405Z,16.90
2023-02-01T01:27:55.325Z,16.86
2023-02-01T01:28:55.314Z,16.84
2023-02-01T01:29:55.301Z,16.93
2023-02-01T01:30:55.323Z,16.83
2023-02-01T01:31:55.308Z,16.87
2023-02-01T01:32:55.239Z,16.86
2023-02-01T01:33:55.227Z,16.91
2023-02-01T01:34:55.210Z,16.87
2023-02-01T01:35:55.187Z,16.84
2023-02-01T01:36:55.189Z,16.89
2023-02-01T01:37:55.171Z,16.87
2023-02-01T01:38:55.159Z,16.89
2023-02-01T01:39:55.130Z,16.86
2023-02-01T01:40:55.120Z,16.86
2023-02-01T01:41:55.131Z,16.93
2023-02-01T01:42:55.092Z,16.89
2023-02-01T01:43:55.072Z,16.83
2023-02-01T01:44:55.073Z,16.86
2023-02-01T01:45:55.049Z,16.92
2023-02-01T01:46:55.120Z,16.90
2023-02-01T01:47:55.024Z,16.92
2023-02-01T01:48:55.011Z,16.92
2023-02-01T01:49:55.006Z,16.89
2023-02-01T02:07:54.775Z,16.86
2023-02-01T03:23:01.801Z,16.87
2023-02-01T03:24:01.753Z,16.84
2023-02-01T03:25:01.692Z,16.92
2023-02-01T03:26:01.637Z,16.92
2023-02-01T03:27:01.571Z,16.82
2023-02-01T03:28:01.522Z,16.87
2023-02-01T03:29:01.471Z,16.83
2023-02-01T03:30:01.400Z,16.89
2023-02-01T03:31:01.389Z,16.83
2023-02-01T03:32:01.364Z,16.83
2023-02-01T03:33:01.295Z,16.83
2023-02-01T03:34:01.202Z,16.86
2023-02-01T03:35:01.137Z,16.84
2023-02-01T03:36:01.081Z,16.90
2023-02-01T03:37:01.029Z,16.87
2023-02-01T03:38:00.966Z,16.92
2023-02-01T03:39:00.927Z,16.93
2023-02-01T03:40:00.868Z,16.87
2023-02-01T03:41:00.816Z,16.85
2023-02-01T03:42:00.767Z,16.82
2023-02-01T03:43:00.735Z,16.87
2023-02-01T03:44:00.648Z,16.89
2023-02-01T03:45:00.590Z,16.86
2023-02-01T03:46:00.542Z,16.89
2023-02-01T03:47:00.479Z,16.84
2023-02-01T03:48:00.419Z,16.80
2023-02-01T03:49:00.369Z,16.86
2023-02-01T03:50:00.308Z,16.90
2023-02-01T03:51:00.268Z,16.86
2023-02-01T03:52:00.242Z,16.86
2023-02-01T03:53:00.149Z,16.86
2023-02-01T03:54:00.138Z,16.84
2023-02-01T03:55:00.045Z,16.85
2023-02-01T03:56:00.029Z,16.82
2023-02-01T03:56:59.942Z,16.84
2023-02-01T03:57:59.882Z,16.87
2023-02-01T03:58:59.978Z,16.77
2023-02-01T03:59:59.769Z,16.87
2023-02-01T04:00:59.765Z,16.83
2023-02-01T04:01:59.686Z,16.86
2023-02-01T04:02:59.600Z,16.86
2023-02-01T04:03:59.550Z,16.81
2023-02-01T04:04:59.511Z,16.81
2023-02-01T04:05:59.438Z,16.82
2023-02-01T04:06:59.385Z,16.87
2023-02-01T04:07:59.337Z,16.84
2023-02-01T04:08:59.287Z,16.82
2023-02-01T04:09:59.223Z,16.81
2023-02-01T04:10:59.169Z,16.89
2023-02-01T04:11:59.113Z,16.84
2023-02-01T04:12:59.081Z,16.82
2023-02-01T04:13:59.004Z,16.90
2023-02-01T04:14:58.961Z,16.81
2023-02-01T04:15:58.885Z,16.90
2023-02-01T04:16:58.837Z,16.84
2023-02-01T04:17:58.789Z,16.82
2023-02-01T04:18:58.722Z,16.86
2023-02-01T04:22:58.478Z,16.76
2023-02-01T04:23:58.418Z,16.78
2023-02-01T04:24:58.365Z,16.85
2023-02-01T04:25:58.311Z,16.81
2023-02-01T04:26:58.254Z,16.88
2023-02-01T04:27:58.185Z,16.87
2023-02-01T04:28:58.143Z,16.82
2023-02-01T04:29:58.562Z,16.81
2023-02-01T04:30:58.172Z,16.82
2023-02-01T04:31:58.009Z,16.85
2023-02-01T04:32:57.951Z,16.80
2023-02-01T04:33:57.885Z,16.82
2023-02-01T04:34:57.826Z,16.82
2023-02-01T04:35:57.774Z,16.84
2023-02-01T04:36:57.731Z,16.81
2023-02-01T04:37:57.657Z,16.82
2023-02-01T04:38:57.624Z,16.80
2023-02-01T04:39:57.555Z,16.82
2023-02-01T04:40:57.497Z,16.85
2023-02-01T04:41:57.433Z,16.84
2023-02-01T04:42:57.377Z,16.85
2023-02-01T04:43:57.326Z,16.82
2023-02-01T04:44:57.286Z,16.84
2023-02-01T04:45:57.269Z,16.88
2023-02-01T04:46:57.183Z,16.80
2023-02-01T04:47:57.144Z,16.82
2023-02-01T04:48:57.088Z,16.85
2023-02-01T04:49:57.042Z,16.85
2023-02-01T04:50:57.012Z,16.82
2023-02-01T04:51:56.958Z,16.82
2023-02-01T04:52:56.881Z,16.85
2023-02-01T04:53:56.877Z,16.84
2023-02-01T04:54:59.040Z,16.82
2023-02-01T04:55:56.695Z,16.81
2023-02-01T04:56:56.648Z,16.78
2023-02-01T04:57:56.597Z,16.84
2023-02-01T04:58:56.556Z,16.81
2023-02-01T04:59:56.486Z,16.84
2023-02-01T05:00:56.547Z,16.85
2023-02-01T05:01:56.396Z,16.85
2023-02-01T05:02:56.334Z,16.81
2023-02-01T05:03:56.275Z,16.85
2023-02-01T05:04:56.241Z,16.81
2023-02-01T05:05:56.159Z,16.82
2023-02-01T05:06:56.103Z,16.84
2023-02-01T05:07:56.081Z,16.87
2023-02-01T05:08:56.001Z,16.81
2023-02-01T05:09:55.952Z,16.82
2023-02-01T05:10:55.890Z,16.79
2023-02-01T05:11:55.822Z,16.81
2023-02-01T05:12:55.781Z,16.79
2023-02-01T05:13:55.717Z,16.84
2023-02-01T05:14:55.673Z,16.84
2023-02-01T05:15:55.739Z,16.88
2023-02-01T05:16:55.562Z,16.82
2023-02-01T05:17:55.503Z,16.81
2023-02-01T05:18:55.455Z,16.82
2023-02-01T05:19:55.408Z,16.85
2023-02-01T05:20:55.342Z,16.84
2023-02-01T05:21:55.283Z,16.82
2023-02-01T05:22:55.252Z,16.84
2023-02-01T05:23:55.183Z,16.87
2023-02-01T05:24:55.156Z,16.84
2023-02-01T05:25:55.068Z,16.87
2023-02-01T05:26:55.055Z,16.82
2023-02-01T05:27:54.963Z,16.90
2023-02-01T05:28:54.922Z,16.81
2023-02-01T05:29:54.865Z,16.78
2023-02-01T05:30:54.977Z,16.81
2023-02-01T05:31:54.920Z,16.84
2023-02-01T05:32:54.707Z,16.84
2023-02-01T05:33:54.656Z,16.85
2023-02-01T05:34:54.603Z,16.84
2023-02-01T05:35:54.559Z,16.81
2023-02-01T05:36:54.504Z,16.82
2023-02-01T05:37:54.456Z,16.85
2023-02-01T05:38:54.400Z,16.76
2023-02-01T05:39:54.390Z,16.85
2023-02-01T05:40:54.308Z,16.82
2023-02-01T05:41:54.254Z,16.90
2023-02-01T05:42:54.204Z,16.88
2023-02-01T05:43:54.173Z,16.84
2023-02-01T05:44:54.099Z,16.83
2023-02-01T05:45:54.096Z,16.81
2023-02-01T05:46:54.002Z,16.85
2023-02-01T05:47:53.946Z,16.84
2023-02-01T05:48:53.908Z,16.82
2023-02-01T05:49:53.847Z,16.87
2023-02-01T05:50:53.804Z,16.76
2023-02-01T05:51:53.745Z,16.79
2023-02-01T05:52:53.691Z,16.82
2023-02-01T05:53:53.640Z,16.79
2023-02-01T05:54:53.611Z,16.80
2023-02-01T05:55:53.530Z,16.85
2023-02-01T05:56:53.471Z,16.84
2023-02-01T05:57:53.416Z,16.88
2023-02-01T05:58:53.380Z,16.91
2023-02-01T05:59:53.313Z,16.91
2023-02-01T06:00:53.263Z,17.01
2023-02-01T06:01:53.203Z,17.05
2023-02-01T06:02:53.302Z,17.00
2023-02-01T06:03:53.112Z,17.08
2023-02-01T06:04:53.059Z,17.11
2023-02-01T06:05:53.013Z,17.11
2023-02-01T06:06:52.950Z,17.18
2023-02-01T06:07:52.901Z,17.18
2023-02-01T06:08:52.835Z,17.20
2023-02-01T06:09:52.784Z,17.18
2023-02-01T06:10:52.732Z,17.21
2023-02-01T06:11:52.679Z,17.28
2023-02-01T06:12:52.641Z,17.29
2023-02-01T06:13:52.585Z,17.23
2023-02-01T06:14:52.536Z,17.26
2023-02-01T06:15:52.500Z,17.32
2023-02-01T06:16:52.426Z,17.35
2023-02-01T06:17:52.380Z,17.37
2023-02-01T06:18:52.351Z,17.40
2023-02-01T06:19:52.280Z,17.44
2023-02-01T06:20:52.246Z,17.44
2023-02-01T06:21:52.185Z,17.44
2023-02-01T06:22:52.132Z,17.49
2023-02-01T06:23:52.071Z,17.49
2023-02-01T06:24:52.038Z,17.49
2023-02-01T06:25:51.985Z,17.52
2023-02-01T09:06:43.147Z,16.18
2023-02-01T09:11:42.817Z,16.10
2023-02-01T09:12:42.743Z,16.01
2023-02-01T09:13:42.696Z,16.13
2023-02-01T09:14:42.636Z,16.11
2023-02-01T09:15:42.590Z,16.09
2023-02-01T09:16:42.488Z,16.10
2023-02-01T09:17:42.430Z,16.08
2023-02-01T09:18:50.882Z,16.10
2023-02-01T09:20:42.219Z,16.04
2023-02-01T09:21:42.155Z,16.01
2023-02-01T09:22:42.088Z,16.01
2023-02-01T09:23:42.056Z,16.04
2023-02-01T11:16:35.232Z,16.65
2023-02-01T11:17:35.070Z,16.65
2023-02-01T11:18:35.010Z,16.65
2023-02-01T11:19:34.971Z,16.60
2023-02-01T11:20:34.905Z,16.65
2023-02-01T11:21:34.854Z,16.60
2023-02-01T11:23:34.705Z,16.59
2023-02-01T11:24:34.677Z,16.66
2023-02-01T11:25:34.600Z,16.64
2023-02-01T11:26:34.616Z,16.63
2023-02-01T11:27:34.756Z,16.60
2023-02-01T11:28:34.417Z,16.60
2023-02-01T11:29:34.354Z,16.60
2023-02-01T11:30:34.343Z,16.60
2023-02-01T11:31:34.489Z,16.63
2023-02-01T11:32:34.174Z,16.62
2023-02-01T11:33:34.103Z,16.60
2023-02-01T11:34:34.051Z,16.60
2023-02-01T11:35:34.000Z,16.56
2023-02-01T11:36:33.949Z,16.59
2023-02-01T11:37:33.874Z,16.63
2023-02-01T11:38:33.809Z,16.57
2023-02-01T11:39:33.753Z,16.56
2023-02-01T11:40:33.680Z,16.57
2023-02-01T11:41:33.630Z,16.54
2023-02-01T11:42:33.561Z,16.54
2023-02-01T11:43:33.498Z,16.57
2023-02-01T11:44:33.444Z,16.53
2023-02-01T11:45:33.367Z,16.56
2023-02-01T11:46:33.351Z,16.56
2023-02-01T11:47:33.242Z,16.52
2023-02-01T11:48:33.181Z,16.52
2023-02-01T11:49:33.131Z,16.50
2023-02-01T11:50:33.063Z,16.52
2023-02-01T11:51:33.000Z,16.47
2023-02-01T11:52:32.985Z,16.50
2023-02-01T11:53:32.867Z,16.56
2023-02-01T11:54:32.825Z,16.53
2023-02-01T11:55:32.767Z,16.53
2023-02-01T11:56:32.697Z,16.55
2023-02-01T11:57:32.631Z,16.51
2023-02-01T11:58:32.570Z,16.50
2023-02-01T11:59:32.495Z,16.53
2023-02-01T12:00:32.446Z,16.54
2023-02-01T12:01:32.455Z,16.50
2023-02-01T12:02:32.307Z,16.57
2023-02-01T12:03:32.318Z,16.56
2023-02-01T12:04:32.176Z,16.54
2023-02-01T12:05:32.116Z,16.57
2023-02-01T12:06:32.090Z,16.51
2023-02-01T12:07:32.001Z,16.53
2023-02-01T12:18:32.229Z,16.51
2023-02-01T12:57:28.928Z,16.96
2023-02-01T12:58:28.891Z,16.86
2023-02-01T12:59:28.798Z,16.92
2023-02-01T13:00:28.740Z,16.86
2023-02-01T13:01:28.747Z,16.87
2023-02-01T13:02:28.706Z,16.86
2023-02-01T13:03:28.577Z,16.90
2023-02-01T13:04:28.540Z,16.83
2023-02-01T13:05:28.444Z,16.81
2023-02-01T13:06:28.395Z,16.84
2023-02-01T13:07:28.344Z,16.84
2023-02-01T13:08:28.265Z,16.86
2023-02-01T13:09:28.228Z,16.87
2023-02-01T13:10:28.201Z,16.81
2023-02-01T13:11:28.097Z,16.81
2023-02-01T13:12:28.033Z,16.83
2023-02-01T13:13:27.961Z,16.80
2023-02-01T13:14:27.902Z,16.84
2023-02-01T13:15:27.847Z,16.78
2023-02-01T13:16:27.836Z,16.75
2023-02-01T13:17:27.725Z,16.85
2023-02-01T13:18:27.653Z,16.87
2023-02-01T13:19:27.585Z,16.81
2023-02-01T13:20:27.520Z,16.75
2023-02-01T13:21:27.484Z,16.75
2023-02-01T13:22:27.418Z,16.72
2023-02-01T13:23:27.355Z,16.73
2023-02-01T13:24:27.271Z,16.78
2023-02-01T13:25:27.198Z,16.78
2023-02-01T13:26:27.181Z,16.78
2023-02-01T13:27:27.090Z,16.76
2023-02-01T13:28:27.019Z,16.73
2023-02-01T13:29:26.948Z,16.75
2023-02-01T13:30:26.971Z,16.70
2023-02-01T13:31:26.931Z,16.75
2023-02-01T13:33:50.435Z,16.75
2023-02-01T13:34:26.647Z,16.70
2023-02-01T13:35:26.583Z,16.73
2023-02-01T13:36:26.515Z,16.78
2023-02-01T13:37:26.465Z,16.76
2023-02-01T13:38:26.405Z,16.72
2023-02-01T13:39:26.368Z,16.78
2023-02-01T13:40:26.263Z,16.76
2023-02-01T13:41:26.204Z,16.72
2023-02-01T13:42:26.138Z,16.75
2023-02-01T13:43:26.098Z,16.72
2023-02-01T13:44:26.020Z,16.69
2023-02-01T13:45:26.544Z,16.70
2023-02-01T13:46:26.001Z,16.67
2023-02-01T13:47:25.840Z,16.76
2023-02-01T13:48:25.785Z,16.72
2023-02-01T13:49:25.704Z,16.72
2023-02-01T13:50:25.672Z,16.71
2023-02-01T13:51:25.597Z,16.72
2023-02-01T13:52:25.541Z,16.72
2023-02-01T13:53:25.471Z,16.70
2023-02-01T13:54:25.444Z,16.69
2023-02-01T13:55:25.827Z,16.70
2023-02-01T13:56:25.295Z,16.69
2023-02-01T13:57:25.256Z,16.69
2023-02-01T13:58:25.223Z,16.73
2023-02-01T13:59:25.108Z,16.77
2023-02-01T14:00:25.069Z,16.69
2023-02-01T14:01:25.102Z,16.71
2023-02-01T14:02:24.937Z,16.67
2023-02-01T14:03:24.894Z,16.70
2023-02-01T14:04:24.871Z,16.67
2023-02-01T14:05:25.217Z,16.67
2023-02-01T14:06:24.701Z,16.70
2023-02-01T14:07:24.635Z,16.74
2023-02-01T14:08:24.595Z,16.71
2023-02-01T14:09:24.524Z,16.73
2023-02-01T14:10:24.778Z,16.73
2023-02-01T14:11:24.424Z,16.76
2023-02-01T14:12:24.369Z,16.76
2023-02-01T14:13:24.310Z,16.73
2023-02-01T14:44:22.647Z,16.77
2023-02-01T14:48:22.416Z,16.75
2023-02-01T14:49:23.303Z,16.71
2023-02-01T14:50:22.322Z,16.82
2023-02-01T14:51:22.253Z,16.69
2023-02-01T14:52:22.198Z,16.74
2023-02-01T14:53:22.119Z,16.80
2023-02-01T14:54:22.095Z,16.72
2023-02-01T14:55:22.509Z,16.72
2023-02-01T17:31:13.699Z,16.92
2023-02-01T17:32:13.640Z,16.95
2023-02-01T17:33:22.382Z,16.87
2023-02-01T17:34:14.481Z,16.87
2023-02-01T17:35:13.436Z,16.90
2023-02-01T17:36:13.372Z,16.87
2023-02-01T17:37:13.339Z,16.90
2023-02-01T17:38:13.283Z,16.93
2023-02-01T17:39:13.227Z,16.86
2023-02-01T17:40:13.192Z,16.95
2023-02-01T17:41:13.147Z,16.93
2023-02-01T17:42:13.096Z,16.90
2023-02-01T17:43:13.029Z,16.93
2023-02-01T17:44:12.979Z,16.93
2023-02-01T17:45:12.932Z,16.98
2023-02-01T17:46:12.950Z,16.95
2023-02-01T17:47:12.835Z,16.93
2023-02-01T17:48:12.786Z,16.90
2023-02-01T17:49:12.741Z,16.98
2023-02-01T17:50:12.694Z,16.94
2023-02-01T17:51:12.633Z,16.95
2023-02-01T17:52:12.595Z,16.92
2023-02-01T17:53:12.537Z,16.93
2023-02-01T17:54:12.474Z,16.93
2023-02-01T17:55:12.469Z,16.93
2023-02-01T17:56:12.371Z,16.96
2023-02-01T17:57:12.335Z,16.93
2023-02-01T17:58:12.269Z,16.96
2023-02-01T17:59:12.218Z,16.93
2023-02-01T18:00:12.170Z,16.97
2023-02-01T18:01:12.140Z,16.94
2023-02-01T18:02:12.095Z,17.02
2023-02-01T18:03:12.035Z,16.95
2023-02-01T18:04:11.974Z,16.96
2023-02-01T20:14:04.387Z,17.23
2023-02-01T20:15:04.337Z,17.27
2023-02-01T20:16:04.310Z,17.21
2023-02-01T20:17:04.220Z,17.27
2023-02-01T20:18:04.175Z,17.25
2023-02-01T20:19:04.127Z,17.24
2023-02-01T20:20:04.077Z,17.21
2023-02-01T20:21:04.022Z,17.23
2023-02-01T20:22:03.975Z,17.24
2023-02-01T20:23:03.926Z,17.27
2023-02-01T20:24:03.877Z,17.25
2023-02-01T20:25:03.902Z,17.27
2023-02-01T20:26:04.616Z,17.25
2023-02-01T20:27:04.562Z,17.24
2023-02-01T20:28:04.527Z,17.24
2023-02-01T20:29:04.489Z,17.23
2023-02-01T20:30:04.415Z,17.31
2023-02-01T20:31:04.390Z,17.27
2023-02-01T20:32:04.295Z,17.25
2023-02-01T20:33:04.244Z,17.25
2023-02-01T20:34:04.186Z,17.31
2023-02-01T20:35:04.143Z,17.25
2023-02-01T20:36:04.093Z,17.24
2023-02-01T20:37:04.046Z,17.27
2023-02-01T20:38:03.991Z,17.24
2023-02-01T20:39:03.935Z,17.21
2023-02-01T20:40:04.446Z,17.25
2023-02-01T20:41:03.835Z,17.23
2023-02-01T20:42:03.791Z,17.22
2023-02-01T20:43:03.732Z,17.28
2023-02-01T20:44:03.692Z,17.31
2023-02-01T20:45:03.632Z,17.24
2023-02-01T20:46:03.581Z,17.30
2023-02-01T20:47:03.513Z,17.31
2023-02-01T20:48:03.467Z,17.31
2023-02-01T20:49:03.409Z,17.31
2023-02-01T20:50:03.371Z,17.30
2023-02-01T20:51:03.309Z,17.30
2023-02-01T20:52:03.268Z,17.27
2023-02-01T20:53:03.212Z,17.24
2023-02-01T20:54:03.163Z,17.22
2023-02-01T20:55:03.107Z,17.30
2023-02-01T20:56:03.054Z,17.31
2023-02-01T20:57:02.993Z,17.25
2023-02-01T20:58:02.974Z,17.25
2023-02-01T20:59:02.911Z,17.28
2023-02-01T21:00:02.857Z,17.30
2023-02-01T23:31:55.316Z,17.45
2023-02-01T23:32:55.100Z,17.46
2023-02-01T23:33:55.037Z,17.45
2023-02-01T23:34:54.983Z,17.47
2023-02-01T23:35:54.941Z,17.49
2023-02-01T23:36:54.868Z,17.46
2023-02-01T23:37:54.826Z,17.46
2023-02-01T23:38:54.765Z,17.48
2023-02-01T23:39:54.706Z,17.45
2023-02-01T23:40:54.646Z,17.49
2023-02-01T23:41:54.581Z,17.45
2023-02-01T23:42:54.538Z,17.45
2023-02-01T23:43:54.474Z,17.38
2023-02-01T23:44:54.415Z,17.45
2023-02-01T23:45:54.365Z,17.43
2023-02-01T23:46:54.306Z,17.46
2023-02-01T23:47:54.245Z,17.49
2023-02-01T23:48:54.184Z,17.49
2023-02-01T23:49:54.136Z,17.45
2023-02-01T23:50:54.074Z,17.49
2023-02-01T23:51:54.023Z,17.43
2023-02-01T23:52:53.975Z,17.46
2023-02-01T23:53:53.910Z,17.46
2023-02-01T23:54:53.876Z,17.46
2023-02-01T23:55:53.807Z,17.45
2023-02-01T23:56:53.769Z,17.45
2023-02-01T23:57:53.701Z,17.46
2023-02-01T23:58:53.645Z,17.49
2023-02-01T23:59:53.616Z,17.45
